Accueil
METAR-TAF:

METAR-TAF

Aéroports :

Aérodrome de Fort-Dauphin

Fort-Dauphin, Madagascar

latitude: 25-02S, longitude: 046-57E, altitude: 8 m

Observation

Le bulletin a été fait il y a 1 heure et 24 minutes, à 00:00 UTC
Vent 14 kt de est/nord-est
Température 25°C
Humidité 83%
Pression 1011 hPa
Visibilité 10 km ou plus
Quelques nuages à une hauteur de 2000 ft
Nuages épars à une hauteur de 3300 ft

METAR: FMSD 220000Z 06014KT 9999 FEW020 SCT033 25/22 Q1011

Heure: 04:24 (01:24 UTC)

Prévision

Le bulletin a été fait il y a 2 heures et 24 minutes, à 23:00 UTC
Prévision valable du 22 à 00 UTC au 22 à 24 UTC
Vent 17 kt de est/nord-est
Visibilité 10 km ou plus
Nuages épars à une hauteur de 1700 ft
Nuages épars à une hauteur de 3300 ft

TAF: FMSD 212300Z 2200/2224 06017KT 9999 SCT017 SCT033

Observations et prévisions météorologiques de plus de 4000 aéroports (messages METAR et TAF).

Les stations disponibles sont représentées par des disques jaunes et rouges sur la carte.

Passer la souris dessus pour voir le nom de la station.

Cliquer dessus pour voir les observations et prévisions météorologiques.

Pour changer de carte: cliquez sur les boutons verts avec une croix noire pour zoomer, sur le bouton vert avec un tiret pour effectuer un zoom arrière, ou sur les flèches vertes pour les cartes adjacentes.


METAR-TAF: